sensor_id;sensor_type;location;lat;lon;timestamp;P1;durP1;ratioP1;P2;durP2;ratioP2
72939;SDS011;61094;51.154;13.570;2023-02-15T00:00:35;44.08;;;14.57;;
72939;SDS011;61094;51.154;13.570;2023-02-15T00:02:36;41.25;;;12.80;;
72939;SDS011;61094;51.154;13.570;2023-02-15T00:04:38;44.25;;;14.23;;
72939;SDS011;61094;51.154;13.570;2023-02-15T00:08:51;30.25;;;10.48;;
72939;SDS011;61094;51.154;13.570;2023-02-15T00:11:02;36.67;;;11.98;;
72939;SDS011;61094;51.154;13.570;2023-02-15T00:13:04;39.13;;;12.85;;
72939;SDS011;61094;51.154;13.570;2023-02-15T00:15:07;32.40;;;12.98;;
72939;SDS011;61094;51.154;13.570;2023-02-15T00:17:10;37.67;;;10.93;;
72939;SDS011;61094;51.154;13.570;2023-02-15T00:19:12;36.95;;;13.20;;
72939;SDS011;61094;51.154;13.570;2023-02-15T00:21:15;35.65;;;11.88;;
72939;SDS011;61094;51.154;13.570;2023-02-15T00:23:17;34.50;;;12.52;;
72939;SDS011;61094;51.154;13.570;2023-02-15T00:25:19;46.20;;;13.43;;
72939;SDS011;61094;51.154;13.570;2023-02-15T00:27:20;32.55;;;11.00;;
72939;SDS011;61094;51.154;13.570;2023-02-15T00:29:22;43.60;;;12.95;;
72939;SDS011;61094;51.154;13.570;2023-02-15T00:31:24;42.95;;;12.25;;
72939;SDS011;61094;51.154;13.570;2023-02-15T00:33:27;38.60;;;13.18;;
72939;SDS011;61094;51.154;13.570;2023-02-15T00:35:29;39.30;;;14.25;;
72939;SDS011;61094;51.154;13.570;2023-02-15T00:37:31;32.33;;;11.88;;
72939;SDS011;61094;51.154;13.570;2023-02-15T00:39:32;39.90;;;13.32;;
72939;SDS011;61094;51.154;13.570;2023-02-15T00:41:34;39.60;;;13.93;;
72939;SDS011;61094;51.154;13.570;2023-02-15T00:43:36;32.42;;;12.00;;
72939;SDS011;61094;51.154;13.570;2023-02-15T00:45:37;40.30;;;13.20;;
72939;SDS011;61094;51.154;13.570;2023-02-15T00:47:39;35.45;;;11.68;;
72939;SDS011;61094;51.154;13.570;2023-02-15T00:49:42;38.55;;;11.60;;
72939;SDS011;61094;51.154;13.570;2023-02-15T00:51:44;32.60;;;11.40;;
72939;SDS011;61094;51.154;13.570;2023-02-15T00:53:45;40.60;;;13.75;;
72939;SDS011;61094;51.154;13.570;2023-02-15T00:55:47;42.45;;;15.05;;
72939;SDS011;61094;51.154;13.570;2023-02-15T00:57:50;34.40;;;11.50;;
72939;SDS011;61094;51.154;13.570;2023-02-15T00:59:51;41.63;;;13.18;;
72939;SDS011;61094;51.154;13.570;2023-02-15T01:01:53;36.20;;;11.70;;
72939;SDS011;61094;51.154;13.570;2023-02-15T01:03:55;35.20;;;12.10;;
72939;SDS011;61094;51.154;13.570;2023-02-15T01:05:58;43.17;;;12.93;;
72939;SDS011;61094;51.154;13.570;2023-02-15T01:08:00;39.17;;;12.88;;
72939;SDS011;61094;51.154;13.570;2023-02-15T01:10:02;41.30;;;14.35;;
72939;SDS011;61094;51.154;13.570;2023-02-15T01:12:06;36.60;;;11.75;;
72939;SDS011;61094;51.154;13.570;2023-02-15T01:14:08;36.45;;;11.82;;
72939;SDS011;61094;51.154;13.570;2023-02-15T01:16:12;38.83;;;11.88;;
72939;SDS011;61094;51.154;13.570;2023-02-15T01:18:14;40.17;;;11.93;;
72939;SDS011;61094;51.154;13.570;2023-02-15T01:20:16;30.83;;;11.68;;
72939;SDS011;61094;51.154;13.570;2023-02-15T01:22:20;30.05;;;11.15;;
72939;SDS011;61094;51.154;13.570;2023-02-15T01:24:21;38.78;;;12.80;;
72939;SDS011;61094;51.154;13.570;2023-02-15T01:26:23;31.33;;;10.55;;
72939;SDS011;61094;51.154;13.570;2023-02-15T01:28:24;37.03;;;12.77;;
72939;SDS011;61094;51.154;13.570;2023-02-15T01:30:26;29.08;;;10.95;;
72939;SDS011;61094;51.154;13.570;2023-02-15T01:32:28;38.58;;;11.82;;
72939;SDS011;61094;51.154;13.570;2023-02-15T01:34:30;36.33;;;11.15;;
72939;SDS011;61094;51.154;13.570;2023-02-15T01:36:33;37.58;;;13.30;;
72939;SDS011;61094;51.154;13.570;2023-02-15T01:38:36;35.22;;;11.43;;
72939;SDS011;61094;51.154;13.570;2023-02-15T01:40:39;35.83;;;11.50;;
72939;SDS011;61094;51.154;13.570;2023-02-15T01:42:41;44.42;;;12.20;;
72939;SDS011;61094;51.154;13.570;2023-02-15T01:44:47;35.20;;;10.82;;
72939;SDS011;61094;51.154;13.570;2023-02-15T01:46:53;37.75;;;11.77;;
72939;SDS011;61094;51.154;13.570;2023-02-15T01:48:56;32.15;;;10.35;;
72939;SDS011;61094;51.154;13.570;2023-02-15T01:51:02;36.72;;;11.68;;
72939;SDS011;61094;51.154;13.570;2023-02-15T01:53:06;41.72;;;13.45;;
72939;SDS011;61094;51.154;13.570;2023-02-15T01:55:14;38.55;;;14.05;;
72939;SDS011;61094;51.154;13.570;2023-02-15T01:57:18;27.92;;;9.75;;
72939;SDS011;61094;51.154;13.570;2023-02-15T01:59:23;35.35;;;10.70;;
72939;SDS011;61094;51.154;13.570;2023-02-15T02:01:26;40.28;;;12.10;;
72939;SDS011;61094;51.154;13.570;2023-02-15T02:03:35;29.58;;;10.20;;
72939;SDS011;61094;51.154;13.570;2023-02-15T02:05:42;19.88;;;6.57;;
72939;SDS011;61094;51.154;13.570;2023-02-15T02:07:46;38.72;;;12.98;;
72939;SDS011;61094;51.154;13.570;2023-02-15T02:09:52;33.97;;;12.88;;
72939;SDS011;61094;51.154;13.570;2023-02-15T02:11:58;34.90;;;10.43;;
72939;SDS011;61094;51.154;13.570;2023-02-15T02:14:00;36.13;;;12.38;;
72939;SDS011;61094;51.154;13.570;2023-02-15T02:16:03;30.90;;;11.07;;
72939;SDS011;61094;51.154;13.570;2023-02-15T02:18:14;33.40;;;10.25;;
72939;SDS011;61094;51.154;13.570;2023-02-15T02:20:34;25.27;;;9.27;;
72939;SDS011;61094;51.154;13.570;2023-02-15T02:22:55;34.83;;;10.00;;
72939;SDS011;61094;51.154;13.570;2023-02-15T02:25:23;33.42;;;10.52;;
72939;SDS011;61094;51.154;13.570;2023-02-15T02:27:45;33.53;;;10.15;;
72939;SDS011;61094;51.154;13.570;2023-02-15T02:29:55;37.97;;;10.77;;
72939;SDS011;61094;51.154;13.570;2023-02-15T02:35:13;27.75;;;8.82;;
72939;SDS011;61094;51.154;13.570;2023-02-15T02:37:21;29.95;;;8.80;;
72939;SDS011;61094;51.154;13.570;2023-02-15T02:39:30;26.92;;;9.30;;
72939;SDS011;61094;51.154;13.570;2023-02-15T02:41:44;33.13;;;10.13;;
72939;SDS011;61094;51.154;13.570;2023-02-15T02:43:54;41.45;;;14.27;;
72939;SDS011;61094;51.154;13.570;2023-02-15T02:46:05;32.50;;;10.07;;
72939;SDS011;61094;51.154;13.570;2023-02-15T02:48:12;40.97;;;10.20;;
72939;SDS011;61094;51.154;13.570;2023-02-15T02:54:47;27.65;;;10.35;;
72939;SDS011;61094;51.154;13.570;2023-02-15T02:56:49;49.50;;;14.20;;
72939;SDS011;61094;51.154;13.570;2023-02-15T02:58:55;28.75;;;11.25;;
72939;SDS011;61094;51.154;13.570;2023-02-15T03:01:03;35.50;;;11.05;;
72939;SDS011;61094;51.154;13.570;2023-02-15T03:03:09;36.85;;;10.75;;
72939;SDS011;61094;51.154;13.570;2023-02-15T03:05:15;33.05;;;10.60;;
72939;SDS011;61094;51.154;13.570;2023-02-15T03:07:20;30.77;;;10.45;;
72939;SDS011;61094;51.154;13.570;2023-02-15T03:09:25;34.35;;;9.88;;
72939;SDS011;61094;51.154;13.570;2023-02-15T03:11:34;30.02;;;11.30;;
72939;SDS011;61094;51.154;13.570;2023-02-15T03:13:37;28.30;;;9.63;;
72939;SDS011;61094;51.154;13.570;2023-02-15T03:15:39;31.65;;;10.95;;
72939;SDS011;61094;51.154;13.570;2023-02-15T03:17:57;34.40;;;10.95;;
72939;SDS011;61094;51.154;13.570;2023-02-15T03:20:04;36.08;;;11.48;;
72939;SDS011;61094;51.154;13.570;2023-02-15T03:22:12;37.00;;;10.57;;
72939;SDS011;61094;51.154;13.570;2023-02-15T03:24:19;28.73;;;10.05;;
72939;SDS011;61094;51.154;13.570;2023-02-15T03:26:24;28.92;;;10.25;;
72939;SDS011;61094;51.154;13.570;2023-02-15T03:28:29;37.88;;;11.13;;
72939;SDS011;61094;51.154;13.570;2023-02-15T03:30:35;31.95;;;10.38;;
72939;SDS011;61094;51.154;13.570;2023-02-15T03:32:39;33.58;;;10.85;;
72939;SDS011;61094;51.154;13.570;2023-02-15T03:34:44;28.98;;;9.38;;
72939;SDS011;61094;51.154;13.570;2023-02-15T03:36:46;35.47;;;11.18;;
72939;SDS011;61094;51.154;13.570;2023-02-15T03:38:55;26.95;;;8.82;;
72939;SDS011;61094;51.154;13.570;2023-02-15T03:41:01;26.90;;;9.27;;
72939;SDS011;61094;51.154;13.570;2023-02-15T03:43:11;33.00;;;10.43;;
72939;SDS011;61094;51.154;13.570;2023-02-15T03:45:17;25.70;;;9.93;;
72939;SDS011;61094;51.154;13.570;2023-02-15T03:47:25;32.13;;;9.93;;
72939;SDS011;61094;51.154;13.570;2023-02-15T03:51:36;19.13;;;7.55;;
72939;SDS011;61094;51.154;13.570;2023-02-15T03:53:39;15.57;;;6.40;;
72939;SDS011;61094;51.154;13.570;2023-02-15T03:55:43;24.38;;;8.57;;
72939;SDS011;61094;51.154;13.570;2023-02-15T03:57:47;31.00;;;9.82;;
72939;SDS011;61094;51.154;13.570;2023-02-15T04:00:10;25.13;;;8.20;;
72939;SDS011;61094;51.154;13.570;2023-02-15T04:02:33;25.70;;;8.65;;
72939;SDS011;61094;51.154;13.570;2023-02-15T04:04:40;34.80;;;10.68;;
72939;SDS011;61094;51.154;13.570;2023-02-15T04:06:45;36.90;;;10.80;;
72939;SDS011;61094;51.154;13.570;2023-02-15T04:08:47;32.63;;;10.88;;
72939;SDS011;61094;51.154;13.570;2023-02-15T04:11:08;29.77;;;9.30;;
72939;SDS011;61094;51.154;13.570;2023-02-15T04:13:09;25.10;;;7.45;;
72939;SDS011;61094;51.154;13.570;2023-02-15T04:15:11;25.65;;;8.27;;
72939;SDS011;61094;51.154;13.570;2023-02-15T04:17:31;22.98;;;9.43;;
72939;SDS011;61094;51.154;13.570;2023-02-15T04:19:33;24.42;;;8.35;;
72939;SDS011;61094;51.154;13.570;2023-02-15T04:21:52;31.52;;;9.35;;
72939;SDS011;61094;51.154;13.570;2023-02-15T04:24:11;27.20;;;7.80;;
72939;SDS011;61094;51.154;13.570;2023-02-15T04:26:32;31.15;;;8.68;;
72939;SDS011;61094;51.154;13.570;2023-02-15T04:28:34;26.75;;;9.75;;
72939;SDS011;61094;51.154;13.570;2023-02-15T04:30:36;25.77;;;8.55;;
72939;SDS011;61094;51.154;13.570;2023-02-15T04:32:37;26.58;;;9.23;;
72939;SDS011;61094;51.154;13.570;2023-02-15T04:34:39;23.83;;;8.65;;
72939;SDS011;61094;51.154;13.570;2023-02-15T04:36:41;30.65;;;10.55;;
72939;SDS011;61094;51.154;13.570;2023-02-15T04:38:43;22.08;;;7.90;;
72939;SDS011;61094;51.154;13.570;2023-02-15T04:40:48;27.60;;;9.30;;
72939;SDS011;61094;51.154;13.570;2023-02-15T04:42:53;30.55;;;8.70;;
72939;SDS011;61094;51.154;13.570;2023-02-15T04:44:54;33.80;;;11.02;;
72939;SDS011;61094;51.154;13.570;2023-02-15T04:46:56;24.95;;;8.32;;
72939;SDS011;61094;51.154;13.570;2023-02-15T04:48:57;25.60;;;9.68;;
72939;SDS011;61094;51.154;13.570;2023-02-15T04:50:59;21.80;;;8.13;;
72939;SDS011;61094;51.154;13.570;2023-02-15T04:53:05;23.65;;;7.20;;
72939;SDS011;61094;51.154;13.570;2023-02-15T04:55:07;25.95;;;8.68;;
72939;SDS011;61094;51.154;13.570;2023-02-15T04:57:09;19.63;;;6.88;;
72939;SDS011;61094;51.154;13.570;2023-02-15T04:59:12;20.00;;;6.40;;
72939;SDS011;61094;51.154;13.570;2023-02-15T05:01:14;26.17;;;7.57;;
72939;SDS011;61094;51.154;13.570;2023-02-15T05:03:16;30.42;;;8.30;;
72939;SDS011;61094;51.154;13.570;2023-02-15T05:05:17;27.08;;;7.95;;
72939;SDS011;61094;51.154;13.570;2023-02-15T05:07:19;28.88;;;9.60;;
72939;SDS011;61094;51.154;13.570;2023-02-15T05:09:21;23.70;;;9.23;;
72939;SDS011;61094;51.154;13.570;2023-02-15T05:11:23;26.42;;;8.73;;
72939;SDS011;61094;51.154;13.570;2023-02-15T05:13:24;26.45;;;9.05;;
72939;SDS011;61094;51.154;13.570;2023-02-15T05:15:27;27.92;;;8.80;;
72939;SDS011;61094;51.154;13.570;2023-02-15T05:17:29;30.40;;;9.52;;
72939;SDS011;61094;51.154;13.570;2023-02-15T05:19:31;29.40;;;9.20;;
72939;SDS011;61094;51.154;13.570;2023-02-15T05:21:32;32.10;;;10.43;;
72939;SDS011;61094;51.154;13.570;2023-02-15T05:23:34;26.90;;;9.40;;
72939;SDS011;61094;51.154;13.570;2023-02-15T05:25:36;25.50;;;8.93;;
72939;SDS011;61094;51.154;13.570;2023-02-15T05:27:55;24.95;;;7.70;;
72939;SDS011;61094;51.154;13.570;2023-02-15T05:30:15;25.25;;;7.25;;
72939;SDS011;61094;51.154;13.570;2023-02-15T05:32:18;11.23;;;5.18;;
72939;SDS011;61094;51.154;13.570;2023-02-15T05:34:19;16.48;;;5.68;;
72939;SDS011;61094;51.154;13.570;2023-02-15T05:36:21;17.05;;;6.55;;
72939;SDS011;61094;51.154;13.570;2023-02-15T05:38:22;8.30;;;2.70;;
72939;SDS011;61094;51.154;13.570;2023-02-15T05:40:24;14.50;;;4.63;;
72939;SDS011;61094;51.154;13.570;2023-02-15T05:42:26;19.60;;;6.70;;
72939;SDS011;61094;51.154;13.570;2023-02-15T05:44:28;15.18;;;5.75;;
72939;SDS011;61094;51.154;13.570;2023-02-15T05:46:29;7.55;;;3.03;;
72939;SDS011;61094;51.154;13.570;2023-02-15T05:48:32;26.38;;;5.95;;
72939;SDS011;61094;51.154;13.570;2023-02-15T05:50:34;9.68;;;4.72;;
72939;SDS011;61094;51.154;13.570;2023-02-15T05:52:36;15.27;;;6.07;;
72939;SDS011;61094;51.154;13.570;2023-02-15T05:54:38;16.17;;;6.07;;
72939;SDS011;61094;51.154;13.570;2023-02-15T05:56:40;8.35;;;2.85;;
72939;SDS011;61094;51.154;13.570;2023-02-15T05:58:41;15.95;;;5.63;;
72939;SDS011;61094;51.154;13.570;2023-02-15T06:00:43;6.50;;;2.83;;
72939;SDS011;61094;51.154;13.570;2023-02-15T06:02:45;24.00;;;5.88;;
72939;SDS011;61094;51.154;13.570;2023-02-15T06:04:48;13.23;;;4.82;;
72939;SDS011;61094;51.154;13.570;2023-02-15T06:06:50;11.77;;;4.85;;
72939;SDS011;61094;51.154;13.570;2023-02-15T06:08:51;14.38;;;4.80;;
72939;SDS011;61094;51.154;13.570;2023-02-15T06:10:53;9.88;;;4.57;;
72939;SDS011;61094;51.154;13.570;2023-02-15T06:12:55;13.18;;;5.13;;
72939;SDS011;61094;51.154;13.570;2023-02-15T06:14:56;16.05;;;5.82;;
72939;SDS011;61094;51.154;13.570;2023-02-15T06:16:58;16.90;;;6.95;;
72939;SDS011;61094;51.154;13.570;2023-02-15T06:19:00;13.93;;;4.50;;
72939;SDS011;61094;51.154;13.570;2023-02-15T06:21:03;21.52;;;8.13;;
72939;SDS011;61094;51.154;13.570;2023-02-15T06:23:04;16.45;;;5.07;;
72939;SDS011;61094;51.154;13.570;2023-02-15T06:25:06;17.52;;;7.32;;
72939;SDS011;61094;51.154;13.570;2023-02-15T06:27:10;12.80;;;4.70;;
72939;SDS011;61094;51.154;13.570;2023-02-15T06:29:11;16.75;;;5.18;;
72939;SDS011;61094;51.154;13.570;2023-02-15T06:31:13;14.48;;;5.28;;
72939;SDS011;61094;51.154;13.570;2023-02-15T06:33:15;20.60;;;5.60;;
72939;SDS011;61094;51.154;13.570;2023-02-15T06:35:16;13.70;;;4.60;;
72939;SDS011;61094;51.154;13.570;2023-02-15T06:37:20;11.50;;;4.10;;
72939;SDS011;61094;51.154;13.570;2023-02-15T06:39:21;15.00;;;4.18;;
72939;SDS011;61094;51.154;13.570;2023-02-15T06:41:23;21.83;;;6.38;;
72939;SDS011;61094;51.154;13.570;2023-02-15T06:43:25;10.23;;;3.75;;
72939;SDS011;61094;51.154;13.570;2023-02-15T06:45:26;13.95;;;5.20;;
72939;SDS011;61094;51.154;13.570;2023-02-15T06:47:28;16.55;;;4.95;;
72939;SDS011;61094;51.154;13.570;2023-02-15T06:49:30;29.95;;;26.25;;
72939;SDS011;61094;51.154;13.570;2023-02-15T06:51:31;10.55;;;3.97;;
72939;SDS011;61094;51.154;13.570;2023-02-15T06:53:35;5.65;;;2.63;;
72939;SDS011;61094;51.154;13.570;2023-02-15T06:55:37;13.70;;;4.75;;
72939;SDS011;61094;51.154;13.570;2023-02-15T06:57:38;12.27;;;3.60;;
72939;SDS011;61094;51.154;13.570;2023-02-15T06:59:40;18.17;;;5.53;;
72939;SDS011;61094;51.154;13.570;2023-02-15T07:01:41;18.60;;;4.90;;
72939;SDS011;61094;51.154;13.570;2023-02-15T07:03:43;15.52;;;4.07;;
72939;SDS011;61094;51.154;13.570;2023-02-15T07:05:45;20.95;;;7.43;;
72939;SDS011;61094;51.154;13.570;2023-02-15T07:07:48;13.13;;;4.32;;
72939;SDS011;61094;51.154;13.570;2023-02-15T07:09:51;19.80;;;4.88;;
72939;SDS011;61094;51.154;13.570;2023-02-15T07:11:53;22.05;;;6.60;;
72939;SDS011;61094;51.154;13.570;2023-02-15T07:14:12;10.57;;;4.13;;
72939;SDS011;61094;51.154;13.570;2023-02-15T07:16:14;12.38;;;4.95;;
72939;SDS011;61094;51.154;13.570;2023-02-15T07:18:15;18.92;;;5.10;;
72939;SDS011;61094;51.154;13.570;2023-02-15T07:20:18;21.35;;;4.85;;
72939;SDS011;61094;51.154;13.570;2023-02-15T07:22:21;8.77;;;3.60;;
72939;SDS011;61094;51.154;13.570;2023-02-15T07:24:23;14.68;;;5.38;;
72939;SDS011;61094;51.154;13.570;2023-02-15T07:26:26;15.02;;;6.45;;
72939;SDS011;61094;51.154;13.570;2023-02-15T07:28:28;11.10;;;5.35;;
72939;SDS011;61094;51.154;13.570;2023-02-15T07:30:29;16.13;;;4.65;;
72939;SDS011;61094;51.154;13.570;2023-02-15T07:32:31;13.95;;;3.70;;
72939;SDS011;61094;51.154;13.570;2023-02-15T07:34:34;12.98;;;5.93;;
72939;SDS011;61094;51.154;13.570;2023-02-15T07:36:35;22.95;;;9.60;;
72939;SDS011;61094;51.154;13.570;2023-02-15T07:38:38;13.18;;;5.38;;
72939;SDS011;61094;51.154;13.570;2023-02-15T07:40:40;16.52;;;7.00;;
72939;SDS011;61094;51.154;13.570;2023-02-15T07:42:43;28.42;;;22.92;;
72939;SDS011;61094;51.154;13.570;2023-02-15T07:44:45;13.77;;;7.05;;
72939;SDS011;61094;51.154;13.570;2023-02-15T07:46:47;22.77;;;6.22;;
72939;SDS011;61094;51.154;13.570;2023-02-15T07:48:49;19.30;;;5.97;;
72939;SDS011;61094;51.154;13.570;2023-02-15T07:50:50;10.55;;;4.60;;
72939;SDS011;61094;51.154;13.570;2023-02-15T07:52:52;8.90;;;3.75;;
72939;SDS011;61094;51.154;13.570;2023-02-15T07:54:54;18.60;;;4.97;;
72939;SDS011;61094;51.154;13.570;2023-02-15T07:56:55;18.58;;;7.25;;
72939;SDS011;61094;51.154;13.570;2023-02-15T07:58:58;20.38;;;6.90;;
72939;SDS011;61094;51.154;13.570;2023-02-15T08:01:03;21.30;;;6.18;;
72939;SDS011;61094;51.154;13.570;2023-02-15T08:03:04;22.30;;;6.70;;
72939;SDS011;61094;51.154;13.570;2023-02-15T08:05:15;18.42;;;6.97;;
72939;SDS011;61094;51.154;13.570;2023-02-15T08:07:18;18.63;;;6.82;;
72939;SDS011;61094;51.154;13.570;2023-02-15T08:09:19;15.30;;;5.18;;
72939;SDS011;61094;51.154;13.570;2023-02-15T08:11:22;8.27;;;2.63;;
72939;SDS011;61094;51.154;13.570;2023-02-15T08:13:29;12.10;;;5.15;;
72939;SDS011;61094;51.154;13.570;2023-02-15T08:15:32;15.05;;;5.72;;
72939;SDS011;61094;51.154;13.570;2023-02-15T08:17:35;15.38;;;4.45;;
72939;SDS011;61094;51.154;13.570;2023-02-15T08:19:37;14.73;;;5.88;;
72939;SDS011;61094;51.154;13.570;2023-02-15T08:21:39;16.55;;;6.53;;
72939;SDS011;61094;51.154;13.570;2023-02-15T08:23:42;17.08;;;6.28;;
72939;SDS011;61094;51.154;13.570;2023-02-15T08:25:43;19.83;;;6.78;;
72939;SDS011;61094;51.154;13.570;2023-02-15T08:27:45;15.27;;;5.95;;
72939;SDS011;61094;51.154;13.570;2023-02-15T08:29:47;12.43;;;4.60;;
72939;SDS011;61094;51.154;13.570;2023-02-15T08:31:50;10.65;;;4.55;;
72939;SDS011;61094;51.154;13.570;2023-02-15T08:33:58;18.52;;;5.40;;
72939;SDS011;61094;51.154;13.570;2023-02-15T08:36:03;17.15;;;5.78;;
72939;SDS011;61094;51.154;13.570;2023-02-15T08:38:05;14.15;;;4.93;;
72939;SDS011;61094;51.154;13.570;2023-02-15T08:40:08;14.48;;;5.57;;
72939;SDS011;61094;51.154;13.570;2023-02-15T08:42:10;17.63;;;6.20;;
72939;SDS011;61094;51.154;13.570;2023-02-15T08:44:12;14.10;;;5.93;;
72939;SDS011;61094;51.154;13.570;2023-02-15T08:46:15;17.58;;;5.43;;
72939;SDS011;61094;51.154;13.570;2023-02-15T08:48:18;14.05;;;5.45;;
72939;SDS011;61094;51.154;13.570;2023-02-15T08:50:20;13.25;;;5.70;;
72939;SDS011;61094;51.154;13.570;2023-02-15T08:52:22;12.75;;;4.68;;
72939;SDS011;61094;51.154;13.570;2023-02-15T08:54:23;14.13;;;4.88;;
72939;SDS011;61094;51.154;13.570;2023-02-15T08:56:25;15.57;;;5.72;;
72939;SDS011;61094;51.154;13.570;2023-02-15T08:58:28;13.25;;;4.75;;
72939;SDS011;61094;51.154;13.570;2023-02-15T09:00:31;14.15;;;5.72;;
72939;SDS011;61094;51.154;13.570;2023-02-15T09:02:33;13.50;;;5.65;;
72939;SDS011;61094;51.154;13.570;2023-02-15T09:04:37;14.75;;;6.32;;
72939;SDS011;61094;51.154;13.570;2023-02-15T09:06:40;11.95;;;3.92;;
72939;SDS011;61094;51.154;13.570;2023-02-15T09:08:43;12.85;;;4.75;;
72939;SDS011;61094;51.154;13.570;2023-02-15T09:10:44;12.32;;;4.68;;
72939;SDS011;61094;51.154;13.570;2023-02-15T09:12:46;14.75;;;5.63;;
72939;SDS011;61094;51.154;13.570;2023-02-15T09:14:50;14.77;;;5.22;;
72939;SDS011;61094;51.154;13.570;2023-02-15T09:16:52;12.70;;;5.10;;
72939;SDS011;61094;51.154;13.570;2023-02-15T09:18:54;12.68;;;4.57;;
72939;SDS011;61094;51.154;13.570;2023-02-15T09:21:04;11.57;;;5.00;;
72939;SDS011;61094;51.154;13.570;2023-02-15T09:23:07;11.93;;;4.13;;
72939;SDS011;61094;51.154;13.570;2023-02-15T09:25:08;12.73;;;5.32;;
72939;SDS011;61094;51.154;13.570;2023-02-15T09:27:10;12.85;;;5.20;;
72939;SDS011;61094;51.154;13.570;2023-02-15T09:29:12;12.48;;;5.03;;
72939;SDS011;61094;51.154;13.570;2023-02-15T09:31:15;14.18;;;5.97;;
72939;SDS011;61094;51.154;13.570;2023-02-15T09:33:19;17.20;;;6.47;;
72939;SDS011;61094;51.154;13.570;2023-02-15T09:35:20;13.38;;;5.53;;
72939;SDS011;61094;51.154;13.570;2023-02-15T09:37:23;11.40;;;5.03;;
72939;SDS011;61094;51.154;13.570;2023-02-15T09:39:25;12.30;;;4.55;;
72939;SDS011;61094;51.154;13.570;2023-02-15T09:44:00;13.73;;;5.22;;
72939;SDS011;61094;51.154;13.570;2023-02-15T09:48:39;10.93;;;4.15;;
72939;SDS011;61094;51.154;13.570;2023-02-15T09:50:43;11.63;;;4.50;;
72939;SDS011;61094;51.154;13.570;2023-02-15T09:53:02;13.25;;;5.00;;
72939;SDS011;61094;51.154;13.570;2023-02-15T09:55:20;13.93;;;4.65;;
72939;SDS011;61094;51.154;13.570;2023-02-15T09:57:33;12.43;;;4.90;;
72939;SDS011;61094;51.154;13.570;2023-02-15T09:59:45;12.95;;;5.72;;
72939;SDS011;61094;51.154;13.570;2023-02-15T10:01:55;13.57;;;5.40;;
72939;SDS011;61094;51.154;13.570;2023-02-15T10:04:15;13.27;;;5.00;;
72939;SDS011;61094;51.154;13.570;2023-02-15T10:06:28;12.30;;;4.50;;
72939;SDS011;61094;51.154;13.570;2023-02-15T10:08:55;12.38;;;4.68;;
72939;SDS011;61094;51.154;13.570;2023-02-15T10:11:06;11.85;;;5.05;;
72939;SDS011;61094;51.154;13.570;2023-02-15T10:13:34;13.00;;;4.53;;
72939;SDS011;61094;51.154;13.570;2023-02-15T10:15:52;12.98;;;4.88;;
72939;SDS011;61094;51.154;13.570;2023-02-15T10:18:06;14.48;;;5.03;;
72939;SDS011;61094;51.154;13.570;2023-02-15T10:20:30;11.48;;;4.25;;
72939;SDS011;61094;51.154;13.570;2023-02-15T10:22:41;12.90;;;5.20;;
72939;SDS011;61094;51.154;13.570;2023-02-15T10:25:07;12.88;;;5.75;;
72939;SDS011;61094;51.154;13.570;2023-02-15T10:27:23;15.30;;;5.97;;
72939;SDS011;61094;51.154;13.570;2023-02-15T10:29:27;12.07;;;4.57;;
72939;SDS011;61094;51.154;13.570;2023-02-15T10:31:37;12.23;;;4.60;;
72939;SDS011;61094;51.154;13.570;2023-02-15T10:33:48;12.20;;;4.97;;
72939;SDS011;61094;51.154;13.570;2023-02-15T10:36:04;13.05;;;5.05;;
72939;SDS011;61094;51.154;13.570;2023-02-15T10:38:19;12.50;;;5.68;;
72939;SDS011;61094;51.154;13.570;2023-02-15T10:40:32;12.75;;;5.00;;
72939;SDS011;61094;51.154;13.570;2023-02-15T10:42:45;12.77;;;5.75;;
72939;SDS011;61094;51.154;13.570;2023-02-15T10:45:03;12.50;;;4.82;;
72939;SDS011;61094;51.154;13.570;2023-02-15T10:47:17;15.38;;;5.57;;
72939;SDS011;61094;51.154;13.570;2023-02-15T10:49:37;11.98;;;5.90;;
72939;SDS011;61094;51.154;13.570;2023-02-15T10:51:52;16.08;;;6.10;;
72939;SDS011;61094;51.154;13.570;2023-02-15T10:54:09;15.25;;;5.70;;
72939;SDS011;61094;51.154;13.570;2023-02-15T10:56:25;12.98;;;5.65;;
72939;SDS011;61094;51.154;13.570;2023-02-15T10:58:36;14.75;;;5.90;;
72939;SDS011;61094;51.154;13.570;2023-02-15T11:00:50;13.07;;;5.93;;
72939;SDS011;61094;51.154;13.570;2023-02-15T11:03:05;14.13;;;6.03;;
72939;SDS011;61094;51.154;13.570;2023-02-15T11:05:30;16.92;;;6.43;;
72939;SDS011;61094;51.154;13.570;2023-02-15T11:07:40;14.43;;;6.03;;
72939;SDS011;61094;51.154;13.570;2023-02-15T11:09:48;16.83;;;6.68;;
72939;SDS011;61094;51.154;13.570;2023-02-15T11:11:54;15.88;;;6.65;;
72939;SDS011;61094;51.154;13.570;2023-02-15T11:13:59;15.93;;;6.60;;
72939;SDS011;61094;51.154;13.570;2023-02-15T11:16:05;16.58;;;7.05;;
72939;SDS011;61094;51.154;13.570;2023-02-15T11:18:12;17.88;;;6.88;;
72939;SDS011;61094;51.154;13.570;2023-02-15T11:20:21;15.30;;;6.93;;
72939;SDS011;61094;51.154;13.570;2023-02-15T11:22:29;16.05;;;7.30;;
72939;SDS011;61094;51.154;13.570;2023-02-15T11:24:35;17.60;;;7.28;;
72939;SDS011;61094;51.154;13.570;2023-02-15T11:26:42;16.48;;;6.88;;
72939;SDS011;61094;51.154;13.570;2023-02-15T11:28:48;14.90;;;6.38;;
72939;SDS011;61094;51.154;13.570;2023-02-15T11:30:55;16.42;;;6.78;;
72939;SDS011;61094;51.154;13.570;2023-02-15T11:32:59;15.00;;;7.13;;
72939;SDS011;61094;51.154;13.570;2023-02-15T11:35:10;18.25;;;7.55;;
72939;SDS011;61094;51.154;13.570;2023-02-15T11:37:23;17.58;;;7.65;;
72939;SDS011;61094;51.154;13.570;2023-02-15T11:39:32;17.92;;;7.97;;
72939;SDS011;61094;51.154;13.570;2023-02-15T11:41:37;16.20;;;7.07;;
72939;SDS011;61094;51.154;13.570;2023-02-15T11:43:42;18.33;;;7.95;;
72939;SDS011;61094;51.154;13.570;2023-02-15T11:45:49;16.63;;;6.68;;
72939;SDS011;61094;51.154;13.570;2023-02-15T11:47:51;15.35;;;5.90;;
72939;SDS011;61094;51.154;13.570;2023-02-15T11:49:53;16.25;;;6.15;;
72939;SDS011;61094;51.154;13.570;2023-02-15T11:51:54;15.15;;;6.55;;
72939;SDS011;61094;51.154;13.570;2023-02-15T11:53:57;13.77;;;5.55;;
72939;SDS011;61094;51.154;13.570;2023-02-15T11:55:59;15.73;;;6.55;;
72939;SDS011;61094;51.154;13.570;2023-02-15T11:58:04;16.80;;;6.10;;
72939;SDS011;61094;51.154;13.570;2023-02-15T12:00:27;18.77;;;6.45;;
72939;SDS011;61094;51.154;13.570;2023-02-15T12:02:39;14.10;;;5.75;;
72939;SDS011;61094;51.154;13.570;2023-02-15T12:04:47;17.17;;;5.88;;
72939;SDS011;61094;51.154;13.570;2023-02-15T12:06:53;16.80;;;6.30;;
72939;SDS011;61094;51.154;13.570;2023-02-15T12:09:00;15.95;;;6.25;;
72939;SDS011;61094;51.154;13.570;2023-02-15T12:11:07;15.98;;;6.15;;
72939;SDS011;61094;51.154;13.570;2023-02-15T12:13:13;16.58;;;6.10;;
72939;SDS011;61094;51.154;13.570;2023-02-15T12:15:16;17.38;;;6.38;;
72939;SDS011;61094;51.154;13.570;2023-02-15T12:17:33;13.02;;;4.60;;
72939;SDS011;61094;51.154;13.570;2023-02-15T12:19:40;13.98;;;5.63;;
72939;SDS011;61094;51.154;13.570;2023-02-15T12:21:42;13.40;;;5.22;;
72939;SDS011;61094;51.154;13.570;2023-02-15T12:23:46;13.98;;;5.20;;
72939;SDS011;61094;51.154;13.570;2023-02-15T12:25:50;15.93;;;5.47;;
72939;SDS011;61094;51.154;13.570;2023-02-15T12:29:56;11.55;;;4.40;;